Shinsei Maru — JD2188 — position and weather

sailwx.info

Track history (hours):
 
Tides and Currents Weather Stations Pressure Air Temp Water Temp Dewpoint Dewpoint Depression Visibility Wind Speed Wind Dir Waves Ship Positions

Shinsei Maru

Last reported at 2015-Aug-28 21:33 UTC. Time now 2015-Aug-28 22:18 UTC.
Position N 35°31' E 139°46'.

Length 104 m; draft 6.5 m.

Type: Tanker. MMSI: 431301775.

Date/timePositionNaut miles runAvg speedWind from/ knotsBaromVisibWave heightAir tempDewpointWater temp
2015-Aug-28 21:33N 35°31' E 139°46'6 6.2
2015-Aug-28 20:33N 35°24' E 139°46'10 9.9
2015-Aug-28 19:33N 35°14' E 139°47'  
2015-Aug-21 07:08N 34°01' E 135°02'712.2
2015-Aug-21 06:34N 34°08' E 135°04'1 0.1
2015-Aug-20 23:33N 34°07' E 135°06'0 0.0
2015-Aug-20 22:33N 34°07' E 135°06'0 0.0
2015-Aug-20 21:33N 34°07' E 135°06'0 0.0
2015-Aug-20 20:30N 34°07' E 135°06'0 0.1
2015-Aug-20 19:30N 34°07' E 135°05'0 0.0
2015-Aug-20 17:27N 34°07' E 135°05'0 0.0
2015-Aug-20 14:33N 34°07' E 135°05'0 0.0
2015-Aug-20 12:33N 34°07' E 135°06'0 0.1
2015-Aug-20 11:33N 34°07' E 135°06'0 0.1
2015-Aug-20 10:33N 34°07' E 135°05'1 0.2
2015-Aug-20 04:22N 34°07' E 135°07'1 0.6
2015-Aug-20 03:28N 34°08' E 135°07'0 0.1
2015-Aug-20 02:31N 34°08' E 135°07'0 0.0
2015-Aug-20 01:31N 34°08' E 135°07'0 0.0
2015-Aug-20 00:31N 34°08' E 135°07'0 0.1
2015-Aug-19 23:31N 34°08' E 135°07'0 0.0
2015-Aug-19 22:31N 34°08' E 135°07'0 0.1
2015-Aug-19 21:31N 34°08' E 135°07'0 0.1
2015-Aug-19 20:31N 34°08' E 135°07'0 0.1
2015-Aug-19 19:31N 34°08' E 135°07'0 0.0
2015-Aug-19 18:25N 34°08' E 135°07'0 0.1
2015-Aug-19 16:31N 34°08' E 135°07'0 0.1
2015-Aug-19 15:31N 34°08' E 135°07'0 0.1
2015-Aug-19 14:31N 34°08' E 135°07'0 0.0
2015-Aug-19 13:31N 34°08' E 135°07'0 0.0
2015-Aug-19 12:31N 34°08' E 135°07'0 0.0
2015-Aug-19 11:31N 34°08' E 135°07'5 5.7
2015-Aug-19 10:33N 34°04' E 135°02'  
Track history (hours):
 
Tides and Currents Weather Stations Pressure Air Temp Water Temp Dewpoint Dewpoint Depression Visibility Wind Speed Wind Dir Waves Ship Positions

Shinsei Maru

Last reported at 2015-Aug-28 21:33 UTC. Time now 2015-Aug-28 22:18 UTC.
Position N 35°31' E 139°46'.

Length 104 m; draft 6.5 m.

Type: Tanker. MMSI: 431301775.

Date/timePositionNaut miles runAvg speedWind from/ knotsBaromVisibWave heightAir tempDewpointWater temp
2015-Aug-28 21:33N 35°31' E 139°46'6 6.2
2015-Aug-28 20:33N 35°24' E 139°46'10 9.9
2015-Aug-28 19:33N 35°14' E 139°47'  
2015-Aug-21 07:08N 34°01' E 135°02'712.2
2015-Aug-21 06:34N 34°08' E 135°04'1 0.1
2015-Aug-20 23:33N 34°07' E 135°06'0 0.0
2015-Aug-20 22:33N 34°07' E 135°06'0 0.0
2015-Aug-20 21:33N 34°07' E 135°06'0 0.0
2015-Aug-20 20:30N 34°07' E 135°06'0 0.1
2015-Aug-20 19:30N 34°07' E 135°05'0 0.0
2015-Aug-20 17:27N 34°07' E 135°05'0 0.0
2015-Aug-20 14:33N 34°07' E 135°05'0 0.0
2015-Aug-20 12:33N 34°07' E 135°06'0 0.1
2015-Aug-20 11:33N 34°07' E 135°06'0 0.1
2015-Aug-20 10:33N 34°07' E 135°05'1 0.2
2015-Aug-20 04:22N 34°07' E 135°07'1 0.6
2015-Aug-20 03:28N 34°08' E 135°07'0 0.1
2015-Aug-20 02:31N 34°08' E 135°07'0 0.0
2015-Aug-20 01:31N 34°08' E 135°07'0 0.0
2015-Aug-20 00:31N 34°08' E 135°07'0 0.1
2015-Aug-19 23:31N 34°08' E 135°07'0 0.0
2015-Aug-19 22:31N 34°08' E 135°07'0 0.1
2015-Aug-19 21:31N 34°08' E 135°07'0 0.1
2015-Aug-19 20:31N 34°08' E 135°07'0 0.1
2015-Aug-19 19:31N 34°08' E 135°07'0 0.0
2015-Aug-19 18:25N 34°08' E 135°07'0 0.1
2015-Aug-19 16:31N 34°08' E 135°07'0 0.1
2015-Aug-19 15:31N 34°08' E 135°07'0 0.1
2015-Aug-19 14:31N 34°08' E 135°07'0 0.0
2015-Aug-19 13:31N 34°08' E 135°07'0 0.0
2015-Aug-19 12:31N 34°08' E 135°07'0 0.0
2015-Aug-19 11:31N 34°08' E 135°07'5 5.7
2015-Aug-19 10:33N 34°04' E 135°02'  

Dump ship's entire track history